Del Norte, CO

5:52 PM MDT on August 21, 2014 (GMT -0600)
North West of | Change Station
CLOSE
Current Station
Personal Weather Station
Location: MONTE VISTA, CO
Elevation: 7720 ft
Nearby Weather Stations

Elev 7720 ft 37.65 °N, 106.18 °W | Updated 8 seconds ago

Clear
Clear
77.2 °F
Feels Like 78 °F
N
2.0
Wind Variable Wind from SE
Gusts 9.0 mph

Today
High -- | Low -- °F
--% Chance of Precip.
Yesterday
High -- | Low -- °F
Precip. -- in
6:26 AM 7:50 PM
Waning Crescent, 11% visible
Pressure 29.96 in
Visibility 10.0 miles
Clouds Clear
Heat Index 78 °F
Dew Point 45 °F
Humidity 32%
Rainfall 0.00 in
Snow Depth Not available.
UV 4 out of 12
Pollen 10.10 out of 12
Air Quality Not available.
Flu Activity Not available.
METAR KALS 212252Z AUTO VRB03KT 10SM CLR 25/01 A3022 RMK AO2 SLP146 T02500006

More Conditions Fewer Conditions

Pressure 29.96 in
Visibility 10.0 miles
Clouds Clear
Heat Index 78 °F
Dew Point 45 °F
Humidity 32%
Rainfall 0.00 in
Snow Depth Not available.
UV 4 out of 12
Pollen 10.10 out of 12
Air Quality Not available.
Flu Activity Not available.
METAR KALS 212252Z AUTO VRB03KT 10SM CLR 25/01 A3022 RMK AO2 SLP146 T02500006

More Conditions Fewer Conditions

10-Day Weather Forecast

Almanac

Astronomy

Aug. 21, 2014 Rise Set
Actual Time 6:26 AM MDT 7:50 PM MDT
Civil Twilight 5:59 AM MDT 8:17 PM MDT
Nautical Twilight 5:26 AM MDT 8:50 PM MDT
Astronomical Twilight 4:51 AM MDT 9:24 PM MDT
Moon 3:01 AM MDT 5:19 PM MDT
Length of Visible Light 14h 18m
Length of Day
13h 23m
Tomorrow will be 2m 12s shorter.
Waning Crescent, 11% of the Moon is Illuminated
Today
Waning Crescent
Aug 25
New
Sep 2
First Quarter
Sep 8
Full
Sep 15
Last Quarter

Today's Extremes

State Highs State Lows

Community

WunderPhotos

Upload Photos

1,746,055 photos uploaded!

Nearby

Snow Depth

Station Depth Elevation
Slumgullion 0 in 11440 ft
Mineral Creek 0 in 10040 ft
Red Mountain Pass 0 in 11150 ft
Lizard Head Pass 0 in 10200 ft
El Diente Peak 0 in 10200 ft

Earthquake Activity

City Distance Mag. Time & Date
No recent earthquake activity has been reported nearby.
Minimum magnitude displayed is 2.5.

Coastal Water Temperatures

Place Temperature
No Stations Reporting

Nearby Weather Stations